createdAt,value
2018-05-17T00:01:28.125Z,23.27
2018-05-17T00:03:56.458Z,26.70
2018-05-17T00:06:24.828Z,26.20
2018-05-17T00:08:53.151Z,25.17
2018-05-17T00:11:21.626Z,25.10
2018-05-17T00:13:49.989Z,26.50
2018-05-17T00:16:18.381Z,27.80
2018-05-17T00:18:46.777Z,24.97
2018-05-17T00:21:15.897Z,26.43
2018-05-17T00:23:44.279Z,28.90
2018-05-17T00:26:12.606Z,25.50
2018-05-17T00:28:40.944Z,27.70
2018-05-17T00:31:09.272Z,28.53
2018-05-17T00:33:37.639Z,28.70
2018-05-17T00:36:06.002Z,29.80
2018-05-17T00:38:34.399Z,29.70
2018-05-17T00:41:03.027Z,28.47
2018-05-17T00:43:31.472Z,30.53
2018-05-17T00:45:59.797Z,30.30
2018-05-17T00:48:28.310Z,29.57
2018-05-17T00:50:56.830Z,31.37
2018-05-17T00:53:30.979Z,32.50
2018-05-17T00:55:59.411Z,32.47
2018-05-17T00:58:27.799Z,32.40
2018-05-17T01:00:56.161Z,33.43
2018-05-17T01:03:24.496Z,32.13
2018-05-17T01:05:52.839Z,29.53
2018-05-17T01:08:21.161Z,30.80
2018-05-17T01:10:49.591Z,30.77
2018-05-17T01:13:17.921Z,31.07
2018-05-17T01:15:46.256Z,34.30
2018-05-17T01:18:14.567Z,31.67
2018-05-17T01:20:42.916Z,35.13
2018-05-17T01:23:11.325Z,31.00
2018-05-17T01:25:39.668Z,33.87
2018-05-17T01:28:08.024Z,33.50
2018-05-17T01:30:36.616Z,36.07
2018-05-17T01:33:05.002Z,35.33
2018-05-17T01:35:37.200Z,34.60
2018-05-17T01:38:19.302Z,37.83
2018-05-17T01:40:47.540Z,35.97
2018-05-17T01:43:15.873Z,35.33
2018-05-17T01:45:44.208Z,36.70
2018-05-17T01:48:12.518Z,37.67
2018-05-17T01:50:40.983Z,37.53
2018-05-17T01:53:09.316Z,38.80
2018-05-17T01:55:37.636Z,36.07
2018-05-17T01:58:05.972Z,38.03
2018-05-17T02:00:34.331Z,37.73
2018-05-17T02:03:02.663Z,37.13
2018-05-17T02:05:31.158Z,38.20
2018-05-17T02:07:59.598Z,39.40
2018-05-17T02:10:28.224Z,35.83
2018-05-17T02:12:56.595Z,37.47
2018-05-17T02:15:25.053Z,39.00
2018-05-17T02:17:53.383Z,39.77
2018-05-17T02:20:21.790Z,41.33
2018-05-17T02:22:50.313Z,41.67
2018-05-17T02:25:18.646Z,41.67
2018-05-17T02:27:47.045Z,42.23
2018-05-17T02:30:15.378Z,44.90
2018-05-17T02:32:43.859Z,42.27
2018-05-17T02:35:12.177Z,42.63
2018-05-17T02:37:40.627Z,45.33
2018-05-17T02:40:08.956Z,43.43
2018-05-17T02:42:38.178Z,42.30
2018-05-17T02:45:06.522Z,44.07
2018-05-17T02:47:34.862Z,40.33
2018-05-17T02:50:03.356Z,45.07
2018-05-17T02:52:31.726Z,42.80
2018-05-17T02:55:00.075Z,45.73
2018-05-17T02:57:28.484Z,43.23
2018-05-17T02:59:56.820Z,44.57
2018-05-17T03:02:25.147Z,45.03
2018-05-17T03:04:53.488Z,46.43
2018-05-17T03:07:21.811Z,42.60
2018-05-17T03:09:50.157Z,47.60
2018-05-17T03:12:18.485Z,46.53
2018-05-17T03:14:46.820Z,46.77
2018-05-17T03:17:15.175Z,50.03
2018-05-17T03:19:43.537Z,52.30
2018-05-17T03:22:11.869Z,50.20
2018-05-17T03:24:40.207Z,48.33
2018-05-17T03:27:08.567Z,49.83
2018-05-17T03:29:36.901Z,49.20
2018-05-17T03:32:05.240Z,47.20
2018-05-17T03:34:33.556Z,49.50
2018-05-17T03:37:01.894Z,47.20
2018-05-17T03:39:30.216Z,49.53
2018-05-17T03:41:58.621Z,49.77
2018-05-17T03:44:27.021Z,50.60
2018-05-17T03:46:55.407Z,51.03
2018-05-17T03:49:23.723Z,49.60
2018-05-17T03:51:52.102Z,48.10
2018-05-17T03:54:20.477Z,49.30
2018-05-17T03:56:48.805Z,51.20
2018-05-17T03:59:17.184Z,50.47
2018-05-17T04:01:57.243Z,51.83
2018-05-17T04:04:37.407Z,48.97
2018-05-17T04:07:05.809Z,51.47
2018-05-17T04:09:34.147Z,51.57
2018-05-17T04:12:02.501Z,52.10
2018-05-17T04:14:31.656Z,52.23
2018-05-17T04:17:00.093Z,49.37
2018-05-17T04:19:28.412Z,52.73
2018-05-17T04:21:56.749Z,51.37
2018-05-17T04:24:25.104Z,49.30
2018-05-17T04:26:53.489Z,45.80
2018-05-17T04:29:21.948Z,49.57
2018-05-17T04:31:50.198Z,51.30
2018-05-17T04:34:18.526Z,49.37
2018-05-17T04:36:47.105Z,50.17
2018-05-17T04:39:15.445Z,51.63
2018-05-17T04:41:43.762Z,47.80
2018-05-17T04:44:12.124Z,47.17
2018-05-17T04:46:40.458Z,44.20
2018-05-17T04:49:08.839Z,46.30
2018-05-17T04:51:37.176Z,49.27
2018-05-17T04:54:05.510Z,43.83
2018-05-17T04:56:33.846Z,45.10
2018-05-17T04:59:02.212Z,47.17
2018-05-17T05:01:30.534Z,44.27
2018-05-17T05:03:58.919Z,45.93
2018-05-17T05:06:27.420Z,47.40
2018-05-17T05:08:55.762Z,47.00
2018-05-17T05:11:24.117Z,48.10
2018-05-17T05:13:52.460Z,50.80
2018-05-17T05:16:20.935Z,48.43
2018-05-17T05:18:49.265Z,50.60
2018-05-17T05:21:17.677Z,51.03
2018-05-17T05:23:46.106Z,50.10
2018-05-17T05:26:14.685Z,48.83
2018-05-17T05:28:43.012Z,52.80
2018-05-17T05:31:11.359Z,47.93
2018-05-17T05:33:39.753Z,49.27
2018-05-17T05:36:08.097Z,47.93
2018-05-17T05:38:36.438Z,48.00
2018-05-17T05:41:04.765Z,47.27
2018-05-17T05:43:33.088Z,46.03
2018-05-17T05:46:01.409Z,47.90
2018-05-17T05:48:29.822Z,45.07
2018-05-17T05:50:58.149Z,45.20
2018-05-17T05:53:26.501Z,43.47
2018-05-17T05:55:54.828Z,46.83
2018-05-17T05:58:23.167Z,43.87
2018-05-17T06:00:51.555Z,45.57
2018-05-17T06:03:19.968Z,45.20
2018-05-17T06:05:48.298Z,43.50
2018-05-17T06:08:16.712Z,45.77
2018-05-17T06:10:45.035Z,42.97
2018-05-17T06:13:13.427Z,42.93
2018-05-17T06:15:41.771Z,41.67
2018-05-17T06:18:10.216Z,41.03
2018-05-17T06:20:38.613Z,43.83
2018-05-17T06:23:07.104Z,40.53
2018-05-17T06:25:35.439Z,42.50
2018-05-17T06:28:03.761Z,43.37
2018-05-17T06:30:32.175Z,42.80
2018-05-17T06:33:00.497Z,40.13
2018-05-17T06:35:28.919Z,41.93
2018-05-17T06:37:57.252Z,36.47
2018-05-17T06:40:25.596Z,41.20
2018-05-17T06:42:54.176Z,39.30
2018-05-17T06:45:22.526Z,36.87
2018-05-17T06:47:50.926Z,37.23
2018-05-17T06:50:19.335Z,37.07
2018-05-17T06:52:47.684Z,36.97
2018-05-17T06:55:16.101Z,37.23
2018-05-17T06:57:44.440Z,37.77
2018-05-17T07:00:14.424Z,36.37
2018-05-17T07:02:42.817Z,33.93
2018-05-17T07:05:11.175Z,35.73
2018-05-17T07:07:39.745Z,33.73
2018-05-17T07:10:08.203Z,33.30
2018-05-17T07:12:36.542Z,34.67
2018-05-17T07:15:04.880Z,35.97
2018-05-17T07:17:33.269Z,34.60
2018-05-17T07:20:01.657Z,34.87
2018-05-17T07:22:30.055Z,32.20
2018-05-17T07:24:59.048Z,30.10
2018-05-17T07:27:27.374Z,29.20
2018-05-17T07:29:55.783Z,31.70
2018-05-17T07:32:24.151Z,30.57
2018-05-17T07:34:52.587Z,31.83
2018-05-17T07:37:20.926Z,32.13
2018-05-17T07:39:49.325Z,31.03
2018-05-17T07:42:18.533Z,32.10
2018-05-17T07:44:46.864Z,31.40
2018-05-17T07:47:15.224Z,32.97
2018-05-17T07:49:43.548Z,28.87
2018-05-17T07:52:11.917Z,29.07
2018-05-17T07:54:40.319Z,29.93
2018-05-17T07:57:08.677Z,26.20
2018-05-17T07:59:37.871Z,26.53
2018-05-17T08:02:06.212Z,29.57
2018-05-17T08:04:34.540Z,30.40
2018-05-17T08:07:03.002Z,30.93
2018-05-17T08:09:31.433Z,31.70
2018-05-17T08:12:00.563Z,28.17
2018-05-17T08:14:29.059Z,32.50
2018-05-17T08:16:57.381Z,28.03
2018-05-17T08:19:25.707Z,27.87
2018-05-17T08:21:54.027Z,26.93
2018-05-17T08:24:22.396Z,26.77
2018-05-17T08:26:50.725Z,22.50
2018-05-17T08:29:19.119Z,26.40
2018-05-17T08:31:47.452Z,23.30
2018-05-17T08:34:15.816Z,24.27
2018-05-17T08:36:44.293Z,21.67
2018-05-17T08:39:12.558Z,22.70
2018-05-17T08:41:40.894Z,19.50
2018-05-17T08:44:09.528Z,20.50
2018-05-17T08:46:37.913Z,16.63
2018-05-17T08:49:06.243Z,16.70
2018-05-17T08:51:34.595Z,18.73
2018-05-17T08:54:02.927Z,18.10
2018-05-17T08:56:31.349Z,16.07
2018-05-17T08:58:59.673Z,16.90
2018-05-17T09:01:27.997Z,15.47
2018-05-17T09:03:56.335Z,31.83
2018-05-17T09:06:24.676Z,19.43
2018-05-17T09:08:53.004Z,14.47
2018-05-17T09:11:21.418Z,13.23
2018-05-17T09:13:49.754Z,16.77
2018-05-17T09:16:18.108Z,15.47
2018-05-17T09:18:46.511Z,17.13
2018-05-17T09:21:15.303Z,16.93
2018-05-17T09:23:43.692Z,15.07
2018-05-17T09:26:12.023Z,13.63
2018-05-17T09:28:40.403Z,19.67
2018-05-17T09:31:08.752Z,15.43
2018-05-17T09:33:37.247Z,15.60
2018-05-17T09:36:05.553Z,20.83
2018-05-17T09:38:33.966Z,16.93
2018-05-17T09:41:02.332Z,17.80
2018-05-17T09:43:30.700Z,21.67
2018-05-17T09:45:59.130Z,21.90
2018-05-17T09:48:27.491Z,15.73
2018-05-17T09:50:55.811Z,27.27
2018-05-17T09:53:24.201Z,20.03
2018-05-17T09:55:52.535Z,19.23
2018-05-17T09:58:20.988Z,18.47
2018-05-17T10:00:49.401Z,16.83
2018-05-17T10:03:17.773Z,17.17
2018-05-17T10:05:46.102Z,21.33
2018-05-17T10:08:14.447Z,20.30
2018-05-17T10:10:42.950Z,18.13
2018-05-17T10:13:11.319Z,14.00
2018-05-17T10:15:39.709Z,23.77
2018-05-17T10:18:08.075Z,24.77
2018-05-17T10:20:36.427Z,20.20
2018-05-17T10:23:04.864Z,20.13
2018-05-17T10:25:33.108Z,19.50
2018-05-17T10:28:01.491Z,25.27
2018-05-17T10:30:29.981Z,23.93
2018-05-17T10:32:58.390Z,21.87
2018-05-17T10:35:26.788Z,18.53
2018-05-17T10:37:55.202Z,28.87
2018-05-17T10:40:23.541Z,22.23
2018-05-17T10:42:51.862Z,19.23
2018-05-17T10:45:20.214Z,19.90
2018-05-17T10:47:48.532Z,16.97
2018-05-17T10:50:16.882Z,18.90
2018-05-17T10:52:45.231Z,21.27
2018-05-17T10:55:13.611Z,18.30
2018-05-17T10:57:41.957Z,23.97
2018-05-17T11:00:10.406Z,15.40
2018-05-17T11:02:39.855Z,17.83
2018-05-17T11:05:08.225Z,17.87
2018-05-17T11:07:36.557Z,17.07
2018-05-17T11:10:04.883Z,17.63
2018-05-17T11:12:33.226Z,23.90
2018-05-17T11:15:01.577Z,17.97
2018-05-17T11:17:29.959Z,23.47
2018-05-17T11:19:58.280Z,15.20
2018-05-17T11:22:26.648Z,20.70
2018-05-17T11:24:54.984Z,15.50
2018-05-17T11:27:23.388Z,14.30
2018-05-17T11:29:51.717Z,20.70
2018-05-17T11:32:20.644Z,16.87
2018-05-17T11:34:49.174Z,20.30
2018-05-17T11:37:17.521Z,24.60
2018-05-17T11:39:45.913Z,20.30
2018-05-17T11:42:14.301Z,20.47
2018-05-17T11:44:42.648Z,21.43
2018-05-17T11:47:11.382Z,23.30
2018-05-17T11:49:40.287Z,22.73
2018-05-17T11:52:08.728Z,20.33
2018-05-17T11:54:37.189Z,24.73
2018-05-17T11:57:05.564Z,20.13
2018-05-17T11:59:34.817Z,22.90
2018-05-17T12:02:03.150Z,25.57
2018-05-17T12:04:31.569Z,25.00
2018-05-17T12:06:59.966Z,22.63
2018-05-17T12:09:28.351Z,20.77
2018-05-17T12:11:56.683Z,19.70
2018-05-17T12:14:25.035Z,17.30
2018-05-17T12:16:53.382Z,27.83
2018-05-17T12:19:21.720Z,25.43
2018-05-17T12:21:50.054Z,13.97
2018-05-17T12:24:18.384Z,22.70
2018-05-17T12:26:46.734Z,25.03
2018-05-17T12:29:15.063Z,19.83
2018-05-17T12:31:43.585Z,22.87
2018-05-17T12:34:11.821Z,24.20
2018-05-17T12:36:40.146Z,16.37
2018-05-17T12:39:08.558Z,17.90
2018-05-17T12:41:36.953Z,18.87
2018-05-17T12:44:05.345Z,18.50
2018-05-17T12:46:33.743Z,18.17
2018-05-17T12:49:02.054Z,25.87
2018-05-17T12:51:30.416Z,21.87
2018-05-17T12:53:58.730Z,18.07
2018-05-17T12:56:27.143Z,24.87
2018-05-17T12:58:55.527Z,21.33
2018-05-17T13:01:23.883Z,27.87
2018-05-17T13:03:52.283Z,20.40
2018-05-17T13:06:20.717Z,14.77
2018-05-17T13:08:49.104Z,23.00
2018-05-17T13:11:17.485Z,28.33
2018-05-17T13:13:45.803Z,19.93
2018-05-17T13:16:14.131Z,24.00
2018-05-17T13:18:42.561Z,25.87
2018-05-17T13:21:10.880Z,22.77
2018-05-17T13:23:39.265Z,23.00
2018-05-17T13:26:08.113Z,25.03
2018-05-17T13:28:36.463Z,22.60
2018-05-17T13:31:04.813Z,20.10
2018-05-17T13:33:33.184Z,25.33
2018-05-17T13:36:01.602Z,21.67
2018-05-17T13:38:29.963Z,18.63
2018-05-17T13:40:58.318Z,19.90
2018-05-17T13:43:26.695Z,21.60
2018-05-17T13:45:55.017Z,18.40
2018-05-17T13:48:23.356Z,20.03
2018-05-17T13:50:51.706Z,20.67
2018-05-17T13:53:20.039Z,24.33
2018-05-17T13:55:48.369Z,24.13
2018-05-17T13:58:16.829Z,22.03
2018-05-17T14:00:45.243Z,21.50
2018-05-17T14:03:13.635Z,20.80
2018-05-17T14:05:41.982Z,22.90
2018-05-17T14:08:10.454Z,24.20
2018-05-17T14:10:38.781Z,20.90
2018-05-17T14:13:07.175Z,28.63
2018-05-17T14:15:35.669Z,27.40
2018-05-17T14:18:03.952Z,22.77
2018-05-17T14:20:32.307Z,36.47
2018-05-17T14:23:00.681Z,25.73
2018-05-17T14:25:28.980Z,23.53
2018-05-17T14:27:57.324Z,31.03
2018-05-17T14:30:25.794Z,22.07
2018-05-17T14:32:54.856Z,27.80
2018-05-17T14:35:23.329Z,22.53
2018-05-17T14:37:51.657Z,21.90
2018-05-17T14:40:19.991Z,22.03
2018-05-17T14:42:48.417Z,26.23
2018-05-17T14:45:16.702Z,28.57
2018-05-17T14:47:45.044Z,24.07
2018-05-17T14:50:13.379Z,26.10
2018-05-17T14:52:41.713Z,27.90
2018-05-17T14:55:10.226Z,26.30
2018-05-17T14:57:38.559Z,18.67
2018-05-17T15:00:06.881Z,22.27
2018-05-17T15:02:35.206Z,26.60
2018-05-17T15:05:03.649Z,27.47
2018-05-17T15:07:31.973Z,30.10
2018-05-17T15:10:00.308Z,22.13
2018-05-17T15:12:28.640Z,27.60
2018-05-17T15:14:56.992Z,27.00
2018-05-17T15:17:25.384Z,24.90
2018-05-17T15:19:53.708Z,25.30
2018-05-17T15:22:22.054Z,32.13
2018-05-17T15:24:50.420Z,26.87
2018-05-17T15:27:18.928Z,26.13
2018-05-17T15:29:48.249Z,24.53
2018-05-17T15:32:16.580Z,25.10
2018-05-17T15:34:44.977Z,23.60
2018-05-17T15:37:13.438Z,25.57
2018-05-17T15:39:41.802Z,24.30
2018-05-17T15:42:10.146Z,27.60
2018-05-17T15:44:38.477Z,30.07
2018-05-17T15:47:06.807Z,24.33
2018-05-17T15:49:35.346Z,27.63
2018-05-17T15:52:03.671Z,22.27
2018-05-17T15:54:32.052Z,34.20
2018-05-17T15:57:01.253Z,27.47
2018-05-17T15:59:29.605Z,23.90
2018-05-17T16:01:57.937Z,23.67
2018-05-17T16:04:26.273Z,30.40
2018-05-17T16:06:54.734Z,33.57
2018-05-17T16:09:23.064Z,34.27
2018-05-17T16:11:51.477Z,27.00
2018-05-17T16:14:19.823Z,33.03
2018-05-17T16:16:48.175Z,29.03
2018-05-17T16:19:16.535Z,38.13
2018-05-17T16:21:44.875Z,29.90
2018-05-17T16:24:13.204Z,24.20
2018-05-17T16:26:41.549Z,29.20
2018-05-17T16:29:09.872Z,34.13
2018-05-17T16:31:38.227Z,29.13
2018-05-17T16:34:06.560Z,23.87
2018-05-17T16:36:34.941Z,29.70
2018-05-17T16:39:03.271Z,26.67
2018-05-17T16:41:31.680Z,27.53
2018-05-17T16:44:00.152Z,29.50
2018-05-17T16:46:28.546Z,27.63
2018-05-17T16:48:56.922Z,34.57
2018-05-17T16:51:26.228Z,29.70
2018-05-17T16:53:54.647Z,37.30
2018-05-17T16:56:23.046Z,37.30
2018-05-17T16:58:51.527Z,28.83
2018-05-17T17:01:19.786Z,35.67
2018-05-17T17:03:48.224Z,33.23
2018-05-17T17:06:16.562Z,33.87
2018-05-17T17:08:44.940Z,37.07
2018-05-17T17:11:13.265Z,39.43
2018-05-17T17:13:41.706Z,32.07
2018-05-17T17:16:10.072Z,33.07
2018-05-17T17:18:38.461Z,40.03
2018-05-17T17:21:06.891Z,38.30
2018-05-17T17:23:35.251Z,41.33
2018-05-17T17:26:04.000Z,37.03
2018-05-17T17:28:32.397Z,31.23
2018-05-17T17:31:00.826Z,33.57
2018-05-17T17:33:29.167Z,33.33
2018-05-17T17:35:57.689Z,39.00
2018-05-17T17:38:26.029Z,40.77
2018-05-17T17:40:54.371Z,31.37
2018-05-17T17:43:22.714Z,36.37
2018-05-17T17:45:51.126Z,39.13
2018-05-17T17:48:19.462Z,38.07
2018-05-17T17:50:47.831Z,34.87
2018-05-17T17:53:16.277Z,44.70
2018-05-17T17:55:44.625Z,41.17
2018-05-17T17:58:12.967Z,33.07
2018-05-17T18:00:41.323Z,31.70
2018-05-17T18:03:13.679Z,35.37
2018-05-17T18:05:42.057Z,35.20
2018-05-17T18:08:10.390Z,38.17
2018-05-17T18:10:38.985Z,36.07
2018-05-17T18:13:07.389Z,25.87
2018-05-17T18:15:35.753Z,35.00
2018-05-17T18:18:04.952Z,44.87
2018-05-17T18:20:33.347Z,32.20
2018-05-17T18:23:01.686Z,29.93
2018-05-17T18:25:30.044Z,32.20
2018-05-17T18:27:58.395Z,29.60
2018-05-17T18:30:26.759Z,36.20
2018-05-17T18:32:55.131Z,31.17
2018-05-17T18:35:23.482Z,28.80
2018-05-17T18:37:51.838Z,33.80
2018-05-17T18:40:20.165Z,35.23
2018-05-17T18:42:48.573Z,32.57
2018-05-17T18:45:16.917Z,36.10
2018-05-17T18:47:45.408Z,32.53
2018-05-17T18:50:13.869Z,34.13
2018-05-17T18:52:42.324Z,36.07
2018-05-17T18:55:10.692Z,31.20
2018-05-17T18:57:39.129Z,35.30
2018-05-17T19:00:07.492Z,32.07
2018-05-17T19:05:10.217Z,26.33
2018-05-17T19:07:38.606Z,32.67
2018-05-17T19:10:07.824Z,30.17
2018-05-17T19:12:36.227Z,31.33
2018-05-17T19:15:04.613Z,41.20
2018-05-17T19:17:33.193Z,31.83
2018-05-17T19:20:01.600Z,35.23
2018-05-17T19:22:29.961Z,32.77
2018-05-17T19:24:58.326Z,33.27
2018-05-17T19:27:26.823Z,34.07
2018-05-17T19:29:55.161Z,41.07
2018-05-17T19:32:23.549Z,37.87
2018-05-17T19:34:51.944Z,26.60
2018-05-17T19:37:20.367Z,31.43
2018-05-17T19:39:48.731Z,37.77
2018-05-17T19:42:17.081Z,35.23
2018-05-17T19:44:45.429Z,28.57
2018-05-17T19:47:13.832Z,30.70
2018-05-17T19:49:42.229Z,33.93
2018-05-17T19:52:10.643Z,32.23
2018-05-17T19:54:39.092Z,33.67
2018-05-17T19:57:07.457Z,35.27
2018-05-17T19:59:36.008Z,28.87
2018-05-17T20:02:04.374Z,33.87
2018-05-17T20:04:32.794Z,32.23
2018-05-17T20:07:01.215Z,65.80
2018-05-17T20:09:33.280Z,31.43
2018-05-17T20:12:01.642Z,30.97
2018-05-17T20:14:29.990Z,37.70
2018-05-17T20:16:58.389Z,35.03
2018-05-17T20:19:26.852Z,31.70
2018-05-17T20:21:55.432Z,36.13
2018-05-17T20:24:23.948Z,25.80
2018-05-17T20:26:52.328Z,35.37
2018-05-17T20:29:20.719Z,30.33
2018-05-17T20:31:49.032Z,25.40
2018-05-17T20:34:17.363Z,37.70
2018-05-17T20:36:45.897Z,26.73
2018-05-17T20:39:14.144Z,30.93
2018-05-17T20:41:42.490Z,34.97
2018-05-17T20:44:10.834Z,29.37
2018-05-17T20:46:39.193Z,30.97
2018-05-17T20:49:07.661Z,27.73
2018-05-17T20:51:36.089Z,29.83
2018-05-17T20:54:04.471Z,30.87
2018-05-17T20:56:32.894Z,26.03
2018-05-17T20:59:02.897Z,36.03
2018-05-17T21:01:31.260Z,27.07
2018-05-17T21:03:59.759Z,32.73
2018-05-17T21:06:28.877Z,31.83
2018-05-17T21:08:57.884Z,30.67
2018-05-17T21:11:27.156Z,32.40
2018-05-17T21:13:55.701Z,37.60
2018-05-17T21:16:24.025Z,31.87
2018-05-17T21:18:52.427Z,26.27
2018-05-17T21:21:20.929Z,23.37
2018-05-17T21:23:49.507Z,42.90
2018-05-17T21:26:17.968Z,27.30
2018-05-17T21:28:46.410Z,31.77
2018-05-17T21:31:14.867Z,24.27
2018-05-17T21:33:43.215Z,30.93
2018-05-17T21:36:11.561Z,31.97
2018-05-17T21:38:40.956Z,31.83
2018-05-17T21:41:09.616Z,34.80
2018-05-17T21:43:37.945Z,36.07
2018-05-17T21:46:06.293Z,33.73
2018-05-17T21:48:34.651Z,36.90
2018-05-17T21:51:03.036Z,30.73
2018-05-17T21:53:31.471Z,29.37
2018-05-17T21:55:59.857Z,37.40
2018-05-17T21:58:32.206Z,29.87
2018-05-17T22:01:00.547Z,32.13
2018-05-17T22:03:28.879Z,29.73
2018-05-17T22:05:57.252Z,27.10
2018-05-17T22:08:25.611Z,24.43
2018-05-17T22:10:53.995Z,31.43
2018-05-17T22:13:22.318Z,30.80
2018-05-17T22:15:50.694Z,30.70
2018-05-17T22:18:19.215Z,27.67
2018-05-17T22:20:47.564Z,30.97
2018-05-17T22:23:16.254Z,28.57
2018-05-17T22:25:44.866Z,33.47
2018-05-17T22:28:13.229Z,40.93
2018-05-17T22:30:41.571Z,32.10
2018-05-17T22:33:09.951Z,32.10
2018-05-17T22:35:38.331Z,27.33
2018-05-17T22:38:06.740Z,27.27
2018-05-17T22:40:44.259Z,27.27
2018-05-17T22:43:12.672Z,34.77
2018-05-17T22:45:41.048Z,38.60
2018-05-17T22:48:09.390Z,35.33
2018-05-17T22:50:37.742Z,31.33
2018-05-17T22:53:06.088Z,43.73
2018-05-17T22:55:34.440Z,29.57
2018-05-17T22:58:14.596Z,31.37
2018-05-17T23:00:43.109Z,38.53
2018-05-17T23:03:11.450Z,31.27
2018-05-17T23:05:39.866Z,27.00
2018-05-17T23:08:08.233Z,27.30
2018-05-17T23:10:36.570Z,32.07
2018-05-17T23:13:05.020Z,42.27
2018-05-17T23:15:33.363Z,32.67
2018-05-17T23:18:01.800Z,39.50
2018-05-17T23:20:30.137Z,33.63
2018-05-17T23:22:58.470Z,27.97
2018-05-17T23:25:26.802Z,21.43
2018-05-17T23:27:55.301Z,25.40
2018-05-17T23:30:23.682Z,31.93
2018-05-17T23:32:52.051Z,31.93
2018-05-17T23:35:20.407Z,26.17
2018-05-17T23:37:48.777Z,22.97
2018-05-17T23:40:28.827Z,26.20
2018-05-17T23:42:57.216Z,25.03
2018-05-17T23:45:25.551Z,25.60
2018-05-17T23:47:53.921Z,24.57
2018-05-17T23:50:22.287Z,23.17
2018-05-17T23:52:50.630Z,26.30
2018-05-17T23:55:19.073Z,24.13
2018-05-17T23:57:47.500Z,30.57
